Time,TemperatureF,DewpointF,PressureIn,WindDirection,WindDirectionDegrees,WindSpeedMPH,WindSpeedGustMPH,Humidity,HourlyPrecipIn,Conditions,Clouds,dailyrainin,SoftwareType,DateUTC
2013-06-21 00:06:00,78.4,75.3,29.95,SE,135,0.0,-999.0,90,-99.99,,,0.00,Acu-Link.com,2013-06-21 05:06:00,
2013-06-21 00:21:00,79.2,75.3,29.95,SSE,157,2.7,-999.0,88,-99.99,,,0.00,Acu-Link.com,2013-06-21 05:21:00,
2013-06-21 00:37:00,79.5,75.3,29.95,ESE,112,5.1,-999.0,87,-99.99,,,0.00,Acu-Link.com,2013-06-21 05:37:00,
2013-06-21 00:52:00,79.5,75.3,29.95,South,180,3.8,-999.0,87,-99.99,,,0.00,Acu-Link.com,2013-06-21 05:52:00,
2013-06-21 01:07:00,79.9,75.7,29.95,SSE,157,2.2,-999.0,87,-99.99,,,0.00,Acu-Link.com,2013-06-21 06:07:00,
2013-06-21 01:22:00,79.9,76.0,29.95,SE,135,6.3,-999.0,88,-99.99,,,0.00,Acu-Link.com,2013-06-21 06:22:00,
2013-06-21 01:37:00,80.2,76.4,29.94,SSE,157,4.3,-999.0,88,-99.99,,,0.00,Acu-Link.com,2013-06-21 06:37:00,
2013-06-21 01:53:00,80.2,78.3,29.95,SW,225,3.1,-999.0,94,-99.99,,,0.00,Acu-Link.com,2013-06-21 06:53:00,
2013-06-21 02:08:00,79.7,79.1,29.95,SE,135,4.7,-999.0,98,-99.99,,,0.00,Acu-Link.com,2013-06-21 07:08:00,
2013-06-21 02:23:00,79.7,79.1,29.94,South,180,5.1,-999.0,98,-99.99,,,0.00,Acu-Link.com,2013-06-21 07:23:00,
2013-06-21 02:38:00,79.5,78.9,29.94,South,180,4.7,-999.0,98,-99.99,,,0.00,Acu-Link.com,2013-06-21 07:38:00,
2013-06-21 02:53:00,79.3,78.7,29.94,South,180,5.8,-999.0,98,-99.99,,,0.00,Acu-Link.com,2013-06-21 07:53:00,
2013-06-21 03:09:00,78.8,78.2,29.94,SSE,157,2.7,-999.0,98,-99.99,,,0.00,Acu-Link.com,2013-06-21 08:09:00,
2013-06-21 03:24:00,78.6,78.0,29.94,SSW,202,2.2,-999.0,98,-99.99,,,0.00,Acu-Link.com,2013-06-21 08:24:00,
2013-06-21 03:39:00,78.3,77.6,29.94,South,180,4.7,-999.0,98,-99.99,,,0.00,Acu-Link.com,2013-06-21 08:39:00,
2013-06-21 03:54:00,77.9,77.3,29.94,ESE,112,3.1,-999.0,98,-99.99,,,0.00,Acu-Link.com,2013-06-21 08:54:00,
2013-06-21 04:09:00,77.4,76.7,29.94,SSE,157,3.8,-999.0,98,-99.99,,,0.00,Acu-Link.com,2013-06-21 09:09:00,
2013-06-21 04:25:00,77.2,76.6,29.94,SSE,157,1.6,-999.0,98,-99.99,,,0.00,Acu-Link.com,2013-06-21 09:25:00,
2013-06-21 04:40:00,77.0,76.4,29.94,South,180,1.6,-999.0,98,-99.99,,,0.00,Acu-Link.com,2013-06-21 09:40:00,
2013-06-21 04:55:00,76.6,76.0,29.95,South,180,4.7,-999.0,98,-99.99,,,0.00,Acu-Link.com,2013-06-21 09:55:00,
2013-06-21 05:10:00,76.3,75.7,29.95,SSW,202,2.7,-999.0,98,-99.99,,,0.00,Acu-Link.com,2013-06-21 10:10:00,
2013-06-21 05:26:00,76.1,75.5,29.94,South,180,1.6,-999.0,98,-99.99,,,0.00,Acu-Link.com,2013-06-21 10:26:00,
2013-06-21 05:41:00,75.7,75.1,29.95,South,180,1.6,-999.0,98,-99.99,,,0.00,Acu-Link.com,2013-06-21 10:41:00,
2013-06-21 05:56:00,75.6,75.0,29.95,SSE,157,2.2,-999.0,98,-99.99,,,0.00,Acu-Link.com,2013-06-21 10:56:00,
2013-06-21 06:11:00,75.2,74.6,29.95,ESE,112,2.2,-999.0,98,-99.99,,,0.00,Acu-Link.com,2013-06-21 11:11:00,
2013-06-21 06:26:00,74.8,74.2,29.96,South,180,5.8,-999.0,98,-99.99,,,0.00,Acu-Link.com,2013-06-21 11:26:00,
2013-06-21 06:42:00,74.7,74.1,29.96,SSE,157,3.8,-999.0,98,-99.99,,,0.00,Acu-Link.com,2013-06-21 11:42:00,
2013-06-21 06:57:00,74.7,74.1,29.96,SSE,157,4.7,-999.0,98,-99.99,,,0.00,Acu-Link.com,2013-06-21 11:57:00,
2013-06-21 07:12:00,74.5,73.9,29.96,SSE,157,2.2,-999.0,98,-99.99,,,0.00,Acu-Link.com,2013-06-21 12:12:00,
2013-06-21 07:27:00,74.5,73.9,29.96,SSE,157,2.2,-999.0,98,-99.99,,,0.00,Acu-Link.com,2013-06-21 12:27:00,
2013-06-21 07:42:00,75.7,75.1,29.96,SSE,157,2.7,-999.0,98,-99.99,,,0.00,Acu-Link.com,2013-06-21 12:42:00,
2013-06-21 07:57:00,77.0,76.4,29.97,South,180,3.8,-999.0,98,-99.99,,,0.00,Acu-Link.com,2013-06-21 12:57:00,
2013-06-21 08:13:00,77.7,77.1,29.98,South,180,7.8,-999.0,98,-99.99,,,0.00,Acu-Link.com,2013-06-21 13:13:00,
2013-06-21 08:28:00,77.5,76.9,29.99,SSE,157,2.7,-999.0,98,-99.99,,,0.00,Acu-Link.com,2013-06-21 13:28:00,
2013-06-21 08:43:00,77.9,77.3,29.98,SSE,157,4.7,-999.0,98,-99.99,,,0.00,Acu-Link.com,2013-06-21 13:43:00,
2013-06-21 08:58:00,79.7,79.1,29.99,WSW,247,8.3,-999.0,98,-99.99,,,0.00,Acu-Link.com,2013-06-21 13:58:00,
2013-06-21 09:14:00,80.6,80.0,29.99,SSE,157,5.8,-999.0,98,-99.99,,,0.00,Acu-Link.com,2013-06-21 14:14:00,
2013-06-21 09:29:00,82.2,81.6,30.00,ESE,112,13.0,-999.0,98,-99.99,,,0.00,Acu-Link.com,2013-06-21 14:29:00,
2013-06-21 09:44:00,83.3,82.7,29.99,South,180,5.8,-999.0,98,-99.99,,,0.00,Acu-Link.com,2013-06-21 14:44:00,
2013-06-21 09:59:00,83.5,82.9,29.99,South,180,11.4,-999.0,98,-99.99,,,0.00,Acu-Link.com,2013-06-21 14:59:00,
2013-06-21 10:14:00,87.4,84.1,29.99,SW,225,9.8,-999.0,90,-99.99,,,0.00,Acu-Link.com,2013-06-21 15:14:00,
2013-06-21 10:30:00,86.0,82.4,29.99,SSE,157,7.8,-999.0,89,-99.99,,,0.00,Acu-Link.com,2013-06-21 15:30:00,
2013-06-21 10:45:00,84.4,81.8,30.00,South,180,6.3,-999.0,92,-99.99,,,0.00,Acu-Link.com,2013-06-21 15:45:00,
2013-06-21 11:00:00,86.0,81.7,30.00,South,180,13.0,-999.0,87,-99.99,,,0.00,Acu-Link.com,2013-06-21 16:00:00,
2013-06-21 11:15:00,88.0,81.4,30.00,SSW,202,4.3,-999.0,81,-99.99,,,0.00,Acu-Link.com,2013-06-21 16:15:00,
2013-06-21 11:30:00,89.6,80.2,30.00,SE,135,6.3,-999.0,74,-99.99,,,0.00,Acu-Link.com,2013-06-21 16:30:00,
2013-06-21 11:46:00,89.6,78.9,30.00,SSE,157,7.4,-999.0,71,-99.99,,,0.00,Acu-Link.com,2013-06-21 16:46:00,
2013-06-21 12:01:00,90.5,78.9,29.99,SW,225,7.4,-999.0,69,-99.99,,,0.00,Acu-Link.com,2013-06-21 17:01:00,
2013-06-21 12:16:00,90.5,78.5,29.99,SW,225,10.3,-999.0,68,-99.99,,,0.00,Acu-Link.com,2013-06-21 17:16:00,
2013-06-21 12:31:00,92.5,77.0,29.98,South,180,6.3,-999.0,61,-99.99,,,0.00,Acu-Link.com,2013-06-21 17:31:00,
2013-06-21 12:46:00,92.8,75.8,29.98,SSW,202,8.9,-999.0,58,-99.99,,,0.00,Acu-Link.com,2013-06-21 17:46:00,
2013-06-21 12:47:00,92.8,75.8,29.98,South,180,8.9,-999.0,58,-99.99,,,0.00,Acu-Link.com,2013-06-21 17:47:00,
2013-06-21 13:02:00,93.7,75.6,29.98,SW,225,6.7,-999.0,56,-99.99,,,0.00,Acu-Link.com,2013-06-21 18:02:00,
2013-06-21 13:17:00,95.0,75.7,29.97,South,180,13.0,-999.0,54,-99.99,,,0.00,Acu-Link.com,2013-06-21 18:17:00,
2013-06-21 13:32:00,97.2,77.1,29.97,SSW,202,7.4,-999.0,53,-99.99,,,0.00,Acu-Link.com,2013-06-21 18:32:00,
2013-06-21 13:47:00,95.5,75.1,29.96,SSE,157,11.4,-999.0,52,-99.99,,,0.00,Acu-Link.com,2013-06-21 18:47:00,
2013-06-21 14:03:00,95.9,73.6,29.96,SW,225,8.9,-999.0,49,-99.99,,,0.00,Acu-Link.com,2013-06-21 19:03:00,
2013-06-21 14:18:00,97.7,74.0,29.95,South,180,14.5,-999.0,47,-99.99,,,0.00,Acu-Link.com,2013-06-21 19:18:00,
2013-06-21 14:33:00,98.8,74.3,29.95,ENE,67,5.1,-999.0,46,-99.99,,,0.00,Acu-Link.com,2013-06-21 19:33:00,
2013-06-21 14:48:00,97.7,72.7,29.94,SW,225,12.5,-999.0,45,-99.99,,,0.00,Acu-Link.com,2013-06-21 19:48:00,
2013-06-21 15:03:00,97.7,72.0,29.94,South,180,14.1,-999.0,44,-99.99,,,0.00,Acu-Link.com,2013-06-21 20:03:00,
2013-06-21 15:19:00,100.0,72.8,29.93,West,270,8.9,-999.0,42,-99.99,,,0.00,Acu-Link.com,2013-06-21 20:19:00,
2013-06-21 15:34:00,98.2,71.8,29.92,SSW,202,8.3,-999.0,43,-99.99,,,0.00,Acu-Link.com,2013-06-21 20:34:00,
2013-06-21 15:49:00,96.8,71.9,29.92,South,180,8.9,-999.0,45,-99.99,,,0.00,Acu-Link.com,2013-06-21 20:49:00,
2013-06-21 16:04:00,98.4,72.0,29.92,SSE,157,4.7,-999.0,43,-99.99,,,0.00,Acu-Link.com,2013-06-21 21:04:00,
2013-06-21 16:19:00,98.8,70.9,29.91,WSW,247,5.8,-999.0,41,-99.99,,,0.00,Acu-Link.com,2013-06-21 21:19:00,
2013-06-21 16:35:00,97.7,70.7,29.91,SSW,202,9.8,-999.0,42,-99.99,,,0.00,Acu-Link.com,2013-06-21 21:35:00,
2013-06-21 16:50:00,96.3,71.4,29.91,West,270,4.7,-999.0,45,-99.99,,,0.00,Acu-Link.com,2013-06-21 21:50:00,
2013-06-21 17:05:00,95.9,71.1,29.90,NE,45,6.3,-999.0,45,-99.99,,,0.00,Acu-Link.com,2013-06-21 22:05:00,
2013-06-21 17:20:00,97.5,72.5,29.90,South,180,14.5,-999.0,45,-99.99,,,0.00,Acu-Link.com,2013-06-21 22:20:00,
2013-06-21 17:35:00,97.2,71.6,29.90,South,180,10.3,-999.0,44,-99.99,,,0.00,Acu-Link.com,2013-06-21 22:35:00,
2013-06-21 17:51:00,96.1,71.2,29.89,SSE,157,4.7,-999.0,45,-99.99,,,0.00,Acu-Link.com,2013-06-21 22:51:00,
2013-06-21 18:06:00,96.1,71.9,29.88,South,180,5.1,-999.0,46,-99.99,,,0.00,Acu-Link.com,2013-06-21 23:06:00,
2013-06-21 18:21:00,95.4,71.2,29.88,SSE,157,10.3,-999.0,46,-99.99,,,0.00,Acu-Link.com,2013-06-21 23:21:00,
2013-06-21 18:36:00,95.2,71.1,29.88,South,180,7.4,-999.0,46,-99.99,,,0.00,Acu-Link.com,2013-06-21 23:36:00,
2013-06-21 18:51:00,93.6,70.3,29.87,SSE,157,8.9,-999.0,47,-99.99,,,0.00,Acu-Link.com,2013-06-21 23:51:00,
2013-06-21 19:07:00,93.7,70.4,29.88,ESE,112,4.7,-999.0,47,-99.99,,,0.00,Acu-Link.com,2013-06-22 00:07:00,
2013-06-21 19:22:00,93.2,69.9,29.89,SSW,202,6.7,-999.0,47,-99.99,,,0.00,Acu-Link.com,2013-06-22 00:22:00,
2013-06-21 19:37:00,92.3,69.1,29.89,SSE,157,7.8,-999.0,47,-99.99,,,0.00,Acu-Link.com,2013-06-22 00:37:00,
2013-06-21 19:52:00,91.2,69.3,29.89,South,180,8.3,-999.0,49,-99.99,,,0.00,Acu-Link.com,2013-06-22 00:52:00,
2013-06-21 20:08:00,90.5,68.7,29.90,West,270,9.8,-999.0,49,-99.99,,,0.00,Acu-Link.com,2013-06-22 01:08:00,
2013-06-21 20:23:00,89.6,69.0,29.89,South,180,5.8,-999.0,51,-99.99,,,0.00,Acu-Link.com,2013-06-22 01:23:00,
2013-06-21 20:38:00,88.7,68.8,29.90,SSW,202,7.4,-999.0,52,-99.99,,,0.00,Acu-Link.com,2013-06-22 01:38:00,
2013-06-21 20:53:00,88.0,68.1,29.89,SE,135,4.3,-999.0,52,-99.99,,,0.00,Acu-Link.com,2013-06-22 01:53:00,
2013-06-21 21:08:00,87.4,67.6,29.89,South,180,7.4,-999.0,52,-99.99,,,0.00,Acu-Link.com,2013-06-22 02:08:00,
2013-06-21 21:24:00,86.9,67.7,29.88,ESE,112,5.8,-999.0,53,-99.99,,,0.00,Acu-Link.com,2013-06-22 02:24:00,
2013-06-21 21:39:00,86.4,67.2,29.89,South,180,7.4,-999.0,53,-99.99,,,0.00,Acu-Link.com,2013-06-22 02:39:00,
2013-06-21 21:54:00,85.8,67.2,29.90,South,180,5.1,-999.0,54,-99.99,,,0.00,Acu-Link.com,2013-06-22 02:54:00,
2013-06-21 22:09:00,85.1,67.6,29.90,South,180,3.8,-999.0,56,-99.99,,,0.00,Acu-Link.com,2013-06-22 03:09:00,
2013-06-21 22:24:00,84.2,67.3,29.91,SE,135,0.0,-999.0,57,-99.99,,,0.00,Acu-Link.com,2013-06-22 03:24:00,
2013-06-21 22:40:00,83.3,67.0,29.92,SSE,157,0.0,-999.0,58,-99.99,,,0.00,Acu-Link.com,2013-06-22 03:40:00,
2013-06-21 22:55:00,82.6,67.7,29.92,SSE,157,0.0,-999.0,61,-99.99,,,0.00,Acu-Link.com,2013-06-22 03:55:00,
2013-06-21 23:10:00,81.7,67.8,29.92,South,180,0.0,-999.0,63,-99.99,,,0.00,Acu-Link.com,2013-06-22 04:10:00,
2013-06-21 23:25:00,81.5,68.6,29.93,SSE,157,0.0,-999.0,65,-99.99,,,0.00,Acu-Link.com,2013-06-22 04:25:00,
2013-06-21 23:40:00,81.0,68.9,29.92,SSE,157,4.3,-999.0,67,-99.99,,,0.00,Acu-Link.com,2013-06-22 04:40:00,
2013-06-21 23:56:00,80.2,69.1,29.92,South,180,1.6,-999.0,69,-99.99,,,0.00,Acu-Link.com,2013-06-22 04:56:00,